sensor_id;sensor_type;location;lat;lon;timestamp;P1;durP1;ratioP1;P2;durP2;ratioP2
11473;SDS011;5793;52.238;13.438;2024-02-26T00:02:09;40.67;;;22.20;;
11473;SDS011;5793;52.238;13.438;2024-02-26T00:04:37;40.30;;;24.13;;
11473;SDS011;5793;52.238;13.438;2024-02-26T00:07:05;40.23;;;23.03;;
11473;SDS011;5793;52.238;13.438;2024-02-26T00:09:33;33.67;;;20.90;;
11473;SDS011;5793;52.238;13.438;2024-02-26T00:12:03;39.40;;;23.67;;
11473;SDS011;5793;52.238;13.438;2024-02-26T00:14:32;35.53;;;22.43;;
11473;SDS011;5793;52.238;13.438;2024-02-26T00:17:00;33.23;;;20.90;;
11473;SDS011;5793;52.238;13.438;2024-02-26T00:19:29;32.07;;;19.70;;
11473;SDS011;5793;52.238;13.438;2024-02-26T00:21:57;34.07;;;19.37;;
11473;SDS011;5793;52.238;13.438;2024-02-26T00:24:25;25.77;;;16.70;;
11473;SDS011;5793;52.238;13.438;2024-02-26T00:26:53;24.33;;;15.47;;
11473;SDS011;5793;52.238;13.438;2024-02-26T00:29:21;22.40;;;15.37;;
11473;SDS011;5793;52.238;13.438;2024-02-26T00:31:50;20.40;;;13.03;;
11473;SDS011;5793;52.238;13.438;2024-02-26T00:34:18;26.13;;;13.73;;
11473;SDS011;5793;52.238;13.438;2024-02-26T00:36:46;23.93;;;14.53;;
11473;SDS011;5793;52.238;13.438;2024-02-26T00:39:14;18.73;;;13.07;;
11473;SDS011;5793;52.238;13.438;2024-02-26T00:41:42;20.30;;;14.03;;
11473;SDS011;5793;52.238;13.438;2024-02-26T00:44:10;25.00;;;15.13;;
11473;SDS011;5793;52.238;13.438;2024-02-26T00:46:38;27.97;;;17.43;;
11473;SDS011;5793;52.238;13.438;2024-02-26T00:49:07;23.63;;;16.37;;
11473;SDS011;5793;52.238;13.438;2024-02-26T00:51:35;25.73;;;16.10;;
11473;SDS011;5793;52.238;13.438;2024-02-26T00:54:02;23.23;;;15.47;;
11473;SDS011;5793;52.238;13.438;2024-02-26T00:56:30;26.10;;;15.47;;
11473;SDS011;5793;52.238;13.438;2024-02-26T00:58:58;22.93;;;15.50;;
11473;SDS011;5793;52.238;13.438;2024-02-26T01:01:26;21.93;;;14.07;;
11473;SDS011;5793;52.238;13.438;2024-02-26T01:03:54;23.97;;;15.93;;
11473;SDS011;5793;52.238;13.438;2024-02-26T01:06:23;21.77;;;13.93;;
11473;SDS011;5793;52.238;13.438;2024-02-26T01:08:51;20.93;;;14.23;;
11473;SDS011;5793;52.238;13.438;2024-02-26T01:11:19;25.80;;;14.23;;
11473;SDS011;5793;52.238;13.438;2024-02-26T01:13:47;19.80;;;13.40;;
11473;SDS011;5793;52.238;13.438;2024-02-26T01:16:15;18.93;;;13.60;;
11473;SDS011;5793;52.238;13.438;2024-02-26T01:18:43;20.87;;;14.07;;
11473;SDS011;5793;52.238;13.438;2024-02-26T01:21:11;24.70;;;15.20;;
11473;SDS011;5793;52.238;13.438;2024-02-26T01:23:40;28.17;;;17.17;;
11473;SDS011;5793;52.238;13.438;2024-02-26T01:26:08;25.30;;;15.30;;
11473;SDS011;5793;52.238;13.438;2024-02-26T01:28:37;21.40;;;14.73;;
11473;SDS011;5793;52.238;13.438;2024-02-26T01:31:04;20.30;;;13.37;;
11473;SDS011;5793;52.238;13.438;2024-02-26T01:33:34;18.30;;;12.27;;
11473;SDS011;5793;52.238;13.438;2024-02-26T01:36:03;19.53;;;13.13;;
11473;SDS011;5793;52.238;13.438;2024-02-26T01:38:31;19.10;;;12.33;;
11473;SDS011;5793;52.238;13.438;2024-02-26T01:41:00;16.80;;;11.63;;
11473;SDS011;5793;52.238;13.438;2024-02-26T01:43:29;20.43;;;12.13;;
11473;SDS011;5793;52.238;13.438;2024-02-26T01:45:57;17.63;;;11.67;;
11473;SDS011;5793;52.238;13.438;2024-02-26T01:48:25;16.60;;;10.33;;
11473;SDS011;5793;52.238;13.438;2024-02-26T01:50:53;15.80;;;10.47;;
11473;SDS011;5793;52.238;13.438;2024-02-26T01:53:21;16.80;;;11.17;;
11473;SDS011;5793;52.238;13.438;2024-02-26T01:55:50;17.23;;;10.50;;
11473;SDS011;5793;52.238;13.438;2024-02-26T01:58:19;18.60;;;10.77;;
11473;SDS011;5793;52.238;13.438;2024-02-26T02:00:47;15.23;;;10.37;;
11473;SDS011;5793;52.238;13.438;2024-02-26T02:03:15;13.30;;;9.57;;
11473;SDS011;5793;52.238;13.438;2024-02-26T02:05:43;12.40;;;8.73;;
11473;SDS011;5793;52.238;13.438;2024-02-26T02:08:12;13.57;;;9.43;;
11473;SDS011;5793;52.238;13.438;2024-02-26T02:10:40;14.27;;;9.87;;
11473;SDS011;5793;52.238;13.438;2024-02-26T02:13:09;17.53;;;10.20;;
11473;SDS011;5793;52.238;13.438;2024-02-26T02:15:38;14.50;;;10.23;;
11473;SDS011;5793;52.238;13.438;2024-02-26T02:18:06;14.47;;;10.63;;
11473;SDS011;5793;52.238;13.438;2024-02-26T02:20:36;13.97;;;9.83;;
11473;SDS011;5793;52.238;13.438;2024-02-26T02:23:04;15.60;;;10.03;;
11473;SDS011;5793;52.238;13.438;2024-02-26T02:25:31;15.27;;;10.23;;
11473;SDS011;5793;52.238;13.438;2024-02-26T02:27:59;16.07;;;10.60;;
11473;SDS011;5793;52.238;13.438;2024-02-26T02:30:28;18.80;;;11.17;;
11473;SDS011;5793;52.238;13.438;2024-02-26T02:32:59;21.90;;;12.80;;
11473;SDS011;5793;52.238;13.438;2024-02-26T02:35:27;25.30;;;14.87;;
11473;SDS011;5793;52.238;13.438;2024-02-26T02:37:57;25.07;;;14.13;;
11473;SDS011;5793;52.238;13.438;2024-02-26T02:40:25;20.00;;;11.43;;
11473;SDS011;5793;52.238;13.438;2024-02-26T02:42:53;15.87;;;10.97;;
11473;SDS011;5793;52.238;13.438;2024-02-26T02:45:21;15.20;;;10.27;;
11473;SDS011;5793;52.238;13.438;2024-02-26T02:47:48;19.30;;;11.73;;
11473;SDS011;5793;52.238;13.438;2024-02-26T02:50:16;28.10;;;15.33;;
11473;SDS011;5793;52.238;13.438;2024-02-26T02:52:44;27.70;;;14.33;;
11473;SDS011;5793;52.238;13.438;2024-02-26T02:55:14;22.83;;;14.17;;
11473;SDS011;5793;52.238;13.438;2024-02-26T02:57:41;22.87;;;12.43;;
11473;SDS011;5793;52.238;13.438;2024-02-26T03:00:11;18.97;;;11.50;;
11473;SDS011;5793;52.238;13.438;2024-02-26T03:02:39;24.37;;;14.60;;
11473;SDS011;5793;52.238;13.438;2024-02-26T03:05:08;32.73;;;17.33;;
11473;SDS011;5793;52.238;13.438;2024-02-26T03:07:36;29.93;;;15.60;;
11473;SDS011;5793;52.238;13.438;2024-02-26T03:10:04;74.10;;;18.50;;
11473;SDS011;5793;52.238;13.438;2024-02-26T03:12:34;32.00;;;15.97;;
11473;SDS011;5793;52.238;13.438;2024-02-26T03:15:02;25.30;;;14.40;;
11473;SDS011;5793;52.238;13.438;2024-02-26T03:17:30;26.73;;;15.07;;
11473;SDS011;5793;52.238;13.438;2024-02-26T03:19:58;24.87;;;14.00;;
11473;SDS011;5793;52.238;13.438;2024-02-26T03:22:26;27.60;;;14.87;;
11473;SDS011;5793;52.238;13.438;2024-02-26T03:24:54;22.50;;;14.00;;
11473;SDS011;5793;52.238;13.438;2024-02-26T03:27:22;20.50;;;13.83;;
11473;SDS011;5793;52.238;13.438;2024-02-26T03:29:51;21.60;;;13.33;;
11473;SDS011;5793;52.238;13.438;2024-02-26T03:32:19;20.13;;;12.20;;
11473;SDS011;5793;52.238;13.438;2024-02-26T03:34:47;26.40;;;13.93;;
11473;SDS011;5793;52.238;13.438;2024-02-26T03:37:15;19.37;;;12.03;;
11473;SDS011;5793;52.238;13.438;2024-02-26T03:39:43;21.80;;;12.90;;
11473;SDS011;5793;52.238;13.438;2024-02-26T03:42:11;20.37;;;12.67;;
11473;SDS011;5793;52.238;13.438;2024-02-26T03:44:39;17.07;;;11.23;;
11473;SDS011;5793;52.238;13.438;2024-02-26T03:47:08;15.73;;;11.77;;
11473;SDS011;5793;52.238;13.438;2024-02-26T03:49:35;21.23;;;12.13;;
11473;SDS011;5793;52.238;13.438;2024-02-26T03:52:04;17.60;;;10.90;;
11473;SDS011;5793;52.238;13.438;2024-02-26T03:54:32;18.00;;;11.80;;
11473;SDS011;5793;52.238;13.438;2024-02-26T03:56:59;25.23;;;12.40;;
11473;SDS011;5793;52.238;13.438;2024-02-26T03:59:28;20.60;;;11.40;;
11473;SDS011;5793;52.238;13.438;2024-02-26T04:01:55;25.27;;;11.97;;
11473;SDS011;5793;52.238;13.438;2024-02-26T04:04:24;27.93;;;13.20;;
11473;SDS011;5793;52.238;13.438;2024-02-26T04:06:52;27.10;;;12.33;;
11473;SDS011;5793;52.238;13.438;2024-02-26T04:09:20;35.20;;;13.10;;
11473;SDS011;5793;52.238;13.438;2024-02-26T04:11:48;16.53;;;11.10;;
11473;SDS011;5793;52.238;13.438;2024-02-26T04:14:16;17.53;;;11.93;;
11473;SDS011;5793;52.238;13.438;2024-02-26T04:16:43;17.87;;;12.67;;
11473;SDS011;5793;52.238;13.438;2024-02-26T04:19:11;20.10;;;12.07;;
11473;SDS011;5793;52.238;13.438;2024-02-26T04:21:42;23.10;;;12.43;;
11473;SDS011;5793;52.238;13.438;2024-02-26T04:24:09;24.57;;;12.50;;
11473;SDS011;5793;52.238;13.438;2024-02-26T04:26:37;16.83;;;11.30;;
11473;SDS011;5793;52.238;13.438;2024-02-26T04:29:05;18.57;;;11.37;;
11473;SDS011;5793;52.238;13.438;2024-02-26T04:31:33;19.47;;;11.43;;
11473;SDS011;5793;52.238;13.438;2024-02-26T04:34:01;33.60;;;11.50;;
11473;SDS011;5793;52.238;13.438;2024-02-26T04:36:29;15.70;;;9.80;;
11473;SDS011;5793;52.238;13.438;2024-02-26T04:38:58;41.50;;;11.73;;
11473;SDS011;5793;52.238;13.438;2024-02-26T04:41:26;15.53;;;10.20;;
11473;SDS011;5793;52.238;13.438;2024-02-26T04:43:54;17.60;;;10.23;;
11473;SDS011;5793;52.238;13.438;2024-02-26T04:46:22;16.27;;;9.67;;
11473;SDS011;5793;52.238;13.438;2024-02-26T04:48:50;16.90;;;10.07;;
11473;SDS011;5793;52.238;13.438;2024-02-26T04:51:21;16.07;;;10.23;;
11473;SDS011;5793;52.238;13.438;2024-02-26T04:53:49;15.60;;;10.63;;
11473;SDS011;5793;52.238;13.438;2024-02-26T04:56:18;21.63;;;11.63;;
11473;SDS011;5793;52.238;13.438;2024-02-26T04:58:47;17.57;;;11.13;;
11473;SDS011;5793;52.238;13.438;2024-02-26T05:01:15;22.57;;;11.27;;
11473;SDS011;5793;52.238;13.438;2024-02-26T05:03:43;13.00;;;9.70;;
11473;SDS011;5793;52.238;13.438;2024-02-26T05:06:11;19.57;;;11.03;;
11473;SDS011;5793;52.238;13.438;2024-02-26T05:08:39;16.80;;;11.13;;
11473;SDS011;5793;52.238;13.438;2024-02-26T05:11:07;19.30;;;10.73;;
11473;SDS011;5793;52.238;13.438;2024-02-26T05:13:36;16.53;;;10.87;;
11473;SDS011;5793;52.238;13.438;2024-02-26T05:16:04;20.30;;;9.97;;
11473;SDS011;5793;52.238;13.438;2024-02-26T05:18:32;14.57;;;9.07;;
11473;SDS011;5793;52.238;13.438;2024-02-26T05:21:00;13.03;;;9.20;;
11473;SDS011;5793;52.238;13.438;2024-02-26T05:23:27;14.87;;;9.53;;
11473;SDS011;5793;52.238;13.438;2024-02-26T05:25:56;20.83;;;10.83;;
11473;SDS011;5793;52.238;13.438;2024-02-26T05:28:24;18.20;;;9.90;;
11473;SDS011;5793;52.238;13.438;2024-02-26T05:30:53;16.73;;;9.33;;
11473;SDS011;5793;52.238;13.438;2024-02-26T05:33:20;18.10;;;10.27;;
11473;SDS011;5793;52.238;13.438;2024-02-26T05:35:49;24.27;;;10.50;;
11473;SDS011;5793;52.238;13.438;2024-02-26T05:38:17;16.37;;;10.20;;
11473;SDS011;5793;52.238;13.438;2024-02-26T05:40:45;14.03;;;8.80;;
11473;SDS011;5793;52.238;13.438;2024-02-26T05:43:13;12.67;;;9.17;;
11473;SDS011;5793;52.238;13.438;2024-02-26T05:45:41;15.87;;;9.83;;
11473;SDS011;5793;52.238;13.438;2024-02-26T05:48:10;15.23;;;10.53;;
11473;SDS011;5793;52.238;13.438;2024-02-26T05:50:38;15.40;;;10.07;;
11473;SDS011;5793;52.238;13.438;2024-02-26T05:53:06;15.40;;;9.13;;
11473;SDS011;5793;52.238;13.438;2024-02-26T05:55:34;16.30;;;9.87;;
11473;SDS011;5793;52.238;13.438;2024-02-26T05:58:02;16.13;;;10.67;;
11473;SDS011;5793;52.238;13.438;2024-02-26T06:00:30;19.63;;;10.10;;
11473;SDS011;5793;52.238;13.438;2024-02-26T06:02:58;13.93;;;9.70;;
11473;SDS011;5793;52.238;13.438;2024-02-26T06:05:27;12.73;;;8.73;;
11473;SDS011;5793;52.238;13.438;2024-02-26T06:07:55;19.07;;;9.73;;
11473;SDS011;5793;52.238;13.438;2024-02-26T06:10:23;21.67;;;9.50;;
11473;SDS011;5793;52.238;13.438;2024-02-26T06:12:50;17.70;;;9.90;;
11473;SDS011;5793;52.238;13.438;2024-02-26T06:15:18;27.20;;;10.63;;
11473;SDS011;5793;52.238;13.438;2024-02-26T06:17:46;17.77;;;10.53;;
11473;SDS011;5793;52.238;13.438;2024-02-26T06:20:14;18.60;;;10.87;;
11473;SDS011;5793;52.238;13.438;2024-02-26T06:22:43;18.43;;;11.00;;
11473;SDS011;5793;52.238;13.438;2024-02-26T06:25:11;15.67;;;10.23;;
11473;SDS011;5793;52.238;13.438;2024-02-26T06:27:39;15.70;;;10.43;;
11473;SDS011;5793;52.238;13.438;2024-02-26T06:30:07;15.90;;;9.80;;
11473;SDS011;5793;52.238;13.438;2024-02-26T06:32:37;19.20;;;10.97;;
11473;SDS011;5793;52.238;13.438;2024-02-26T06:35:05;17.57;;;10.33;;
11473;SDS011;5793;52.238;13.438;2024-02-26T06:37:35;19.17;;;12.03;;
11473;SDS011;5793;52.238;13.438;2024-02-26T06:40:05;30.27;;;12.63;;
11473;SDS011;5793;52.238;13.438;2024-02-26T06:42:34;45.37;;;14.20;;
11473;SDS011;5793;52.238;13.438;2024-02-26T06:45:03;19.00;;;11.57;;
11473;SDS011;5793;52.238;13.438;2024-02-26T06:47:33;24.57;;;11.63;;
11473;SDS011;5793;52.238;13.438;2024-02-26T06:50:01;25.97;;;12.03;;
11473;SDS011;5793;52.238;13.438;2024-02-26T06:52:29;34.20;;;12.77;;
11473;SDS011;5793;52.238;13.438;2024-02-26T06:54:57;21.10;;;13.63;;
11473;SDS011;5793;52.238;13.438;2024-02-26T06:57:26;19.13;;;12.13;;
11473;SDS011;5793;52.238;13.438;2024-02-26T06:59:54;21.27;;;13.53;;
11473;SDS011;5793;52.238;13.438;2024-02-26T07:02:22;36.80;;;15.07;;
11473;SDS011;5793;52.238;13.438;2024-02-26T07:04:49;37.90;;;14.10;;
11473;SDS011;5793;52.238;13.438;2024-02-26T07:07:17;24.53;;;12.97;;
11473;SDS011;5793;52.238;13.438;2024-02-26T07:09:45;100.43;;;19.10;;
11473;SDS011;5793;52.238;13.438;2024-02-26T07:12:14;66.40;;;16.30;;
11473;SDS011;5793;52.238;13.438;2024-02-26T07:14:44;25.17;;;11.57;;
11473;SDS011;5793;52.238;13.438;2024-02-26T07:17:12;16.43;;;11.17;;
11473;SDS011;5793;52.238;13.438;2024-02-26T07:19:40;21.67;;;13.57;;
11473;SDS011;5793;52.238;13.438;2024-02-26T07:22:08;30.67;;;17.10;;
11473;SDS011;5793;52.238;13.438;2024-02-26T07:24:35;24.67;;;16.33;;
11473;SDS011;5793;52.238;13.438;2024-02-26T07:27:04;26.53;;;17.13;;
11473;SDS011;5793;52.238;13.438;2024-02-26T07:29:31;25.70;;;16.17;;
11473;SDS011;5793;52.238;13.438;2024-02-26T07:32:01;22.73;;;15.17;;
11473;SDS011;5793;52.238;13.438;2024-02-26T07:34:29;23.70;;;15.53;;
11473;SDS011;5793;52.238;13.438;2024-02-26T07:36:57;24.97;;;16.30;;
11473;SDS011;5793;52.238;13.438;2024-02-26T07:39:24;27.73;;;16.03;;
11473;SDS011;5793;52.238;13.438;2024-02-26T07:41:52;23.93;;;15.10;;
11473;SDS011;5793;52.238;13.438;2024-02-26T07:44:20;25.80;;;15.03;;
11473;SDS011;5793;52.238;13.438;2024-02-26T07:46:48;36.33;;;16.53;;
11473;SDS011;5793;52.238;13.438;2024-02-26T07:49:17;23.13;;;15.10;;
11473;SDS011;5793;52.238;13.438;2024-02-26T07:51:46;20.47;;;14.37;;
11473;SDS011;5793;52.238;13.438;2024-02-26T07:54:14;24.50;;;14.63;;
11473;SDS011;5793;52.238;13.438;2024-02-26T07:56:42;21.83;;;14.90;;
11473;SDS011;5793;52.238;13.438;2024-02-26T07:59:10;28.90;;;14.57;;
11473;SDS011;5793;52.238;13.438;2024-02-26T08:01:38;32.10;;;15.47;;
11473;SDS011;5793;52.238;13.438;2024-02-26T08:04:08;18.63;;;13.73;;
11473;SDS011;5793;52.238;13.438;2024-02-26T08:06:37;89.97;;;19.40;;
11473;SDS011;5793;52.238;13.438;2024-02-26T08:09:05;26.43;;;13.97;;
11473;SDS011;5793;52.238;13.438;2024-02-26T08:11:33;26.40;;;14.43;;
11473;SDS011;5793;52.238;13.438;2024-02-26T08:14:01;17.63;;;13.10;;
11473;SDS011;5793;52.238;13.438;2024-02-26T08:16:28;19.60;;;14.33;;
11473;SDS011;5793;52.238;13.438;2024-02-26T08:18:59;27.27;;;14.00;;
11473;SDS011;5793;52.238;13.438;2024-02-26T08:21:27;22.70;;;13.70;;
11473;SDS011;5793;52.238;13.438;2024-02-26T08:23:56;18.60;;;13.30;;
11473;SDS011;5793;52.238;13.438;2024-02-26T08:26:24;19.23;;;14.30;;
11473;SDS011;5793;52.238;13.438;2024-02-26T08:28:52;27.07;;;14.73;;
11473;SDS011;5793;52.238;13.438;2024-02-26T08:31:22;30.67;;;15.77;;
11473;SDS011;5793;52.238;13.438;2024-02-26T08:33:50;19.23;;;14.73;;
11473;SDS011;5793;52.238;13.438;2024-02-26T08:36:18;24.10;;;15.10;;
11473;SDS011;5793;52.238;13.438;2024-02-26T08:38:46;25.77;;;15.03;;
11473;SDS011;5793;52.238;13.438;2024-02-26T08:41:15;19.67;;;14.53;;
11473;SDS011;5793;52.238;13.438;2024-02-26T08:43:43;21.57;;;15.53;;
11473;SDS011;5793;52.238;13.438;2024-02-26T08:46:12;22.57;;;15.87;;
11473;SDS011;5793;52.238;13.438;2024-02-26T08:48:40;22.77;;;15.97;;
11473;SDS011;5793;52.238;13.438;2024-02-26T08:51:08;24.83;;;15.47;;
11473;SDS011;5793;52.238;13.438;2024-02-26T08:53:36;22.27;;;14.53;;
11473;SDS011;5793;52.238;13.438;2024-02-26T08:56:09;19.83;;;14.33;;
11473;SDS011;5793;52.238;13.438;2024-02-26T08:58:44;21.67;;;13.90;;
11473;SDS011;5793;52.238;13.438;2024-02-26T09:01:15;21.13;;;13.47;;
11473;SDS011;5793;52.238;13.438;2024-02-26T09:03:43;18.87;;;12.87;;
11473;SDS011;5793;52.238;13.438;2024-02-26T09:06:11;24.30;;;12.50;;
11473;SDS011;5793;52.238;13.438;2024-02-26T09:08:42;14.23;;;11.33;;
11473;SDS011;5793;52.238;13.438;2024-02-26T09:11:09;21.83;;;12.57;;
11473;SDS011;5793;52.238;13.438;2024-02-26T09:13:37;14.85;;;11.65;;
11473;SDS011;5793;52.238;13.438;2024-02-26T09:16:07;24.85;;;12.18;;
11473;SDS011;5793;52.238;13.438;2024-02-26T09:18:34;20.98;;;11.25;;
11473;SDS011;5793;52.238;13.438;2024-02-26T09:21:03;15.15;;;11.07;;
11473;SDS011;5793;52.238;13.438;2024-02-26T09:23:32;20.63;;;11.13;;
11473;SDS011;5793;52.238;13.438;2024-02-26T09:26:01;14.38;;;11.48;;
11473;SDS011;5793;52.238;13.438;2024-02-26T09:28:29;13.35;;;10.82;;
11473;SDS011;5793;52.238;13.438;2024-02-26T09:31:01;14.45;;;11.00;;
11473;SDS011;5793;52.238;13.438;2024-02-26T09:33:30;15.18;;;11.25;;
11473;SDS011;5793;52.238;13.438;2024-02-26T09:35:58;13.27;;;10.60;;
11473;SDS011;5793;52.238;13.438;2024-02-26T09:38:26;17.02;;;10.38;;
11473;SDS011;5793;52.238;13.438;2024-02-26T09:41:01;22.40;;;11.40;;
11473;SDS011;5793;52.238;13.438;2024-02-26T09:43:32;13.45;;;9.98;;
11473;SDS011;5793;52.238;13.438;2024-02-26T09:46:02;15.40;;;10.70;;
11473;SDS011;5793;52.238;13.438;2024-02-26T09:48:32;17.42;;;10.52;;
11473;SDS011;5793;52.238;13.438;2024-02-26T09:51:01;18.50;;;10.70;;
11473;SDS011;5793;52.238;13.438;2024-02-26T09:53:30;14.07;;;10.70;;
11473;SDS011;5793;52.238;13.438;2024-02-26T09:55:59;28.60;;;12.07;;
11473;SDS011;5793;52.238;13.438;2024-02-26T09:58:28;12.63;;;10.32;;
11473;SDS011;5793;52.238;13.438;2024-02-26T10:00:56;13.25;;;10.45;;
11473;SDS011;5793;52.238;13.438;2024-02-26T10:03:28;13.98;;;10.73;;
11473;SDS011;5793;52.238;13.438;2024-02-26T10:06:03;12.32;;;9.85;;
11473;SDS011;5793;52.238;13.438;2024-02-26T10:08:32;21.02;;;10.63;;
11473;SDS011;5793;52.238;13.438;2024-02-26T10:11:00;17.55;;;10.10;;
11473;SDS011;5793;52.238;13.438;2024-02-26T10:13:28;10.88;;;9.43;;
11473;SDS011;5793;52.238;13.438;2024-02-26T10:15:56;12.05;;;9.73;;
11473;SDS011;5793;52.238;13.438;2024-02-26T10:18:24;12.55;;;9.63;;
11473;SDS011;5793;52.238;13.438;2024-02-26T10:21:00;16.15;;;10.25;;
11473;SDS011;5793;52.238;13.438;2024-02-26T10:23:30;12.02;;;9.88;;
11473;SDS011;5793;52.238;13.438;2024-02-26T10:25:58;13.23;;;9.70;;
11473;SDS011;5793;52.238;13.438;2024-02-26T10:28:25;12.02;;;10.27;;
11473;SDS011;5793;52.238;13.438;2024-02-26T10:30:56;13.98;;;10.40;;
11473;SDS011;5793;52.238;13.438;2024-02-26T10:33:25;13.68;;;9.55;;
11473;SDS011;5793;52.238;13.438;2024-02-26T10:35:55;12.90;;;9.13;;
11473;SDS011;5793;52.238;13.438;2024-02-26T10:38:23;11.93;;;8.73;;
11473;SDS011;5793;52.238;13.438;2024-02-26T10:40:52;12.35;;;8.52;;
11473;SDS011;5793;52.238;13.438;2024-02-26T10:43:21;12.18;;;9.00;;
11473;SDS011;5793;52.238;13.438;2024-02-26T10:45:49;11.90;;;8.45;;
11473;SDS011;5793;52.238;13.438;2024-02-26T10:48:16;9.80;;;7.10;;
11473;SDS011;5793;52.238;13.438;2024-02-26T10:50:45;9.50;;;7.30;;
11473;SDS011;5793;52.238;13.438;2024-02-26T10:53:15;13.10;;;6.82;;
11473;SDS011;5793;52.238;13.438;2024-02-26T10:55:47;16.35;;;7.03;;
11473;SDS011;5793;52.238;13.438;2024-02-26T10:58:19;47.78;;;10.75;;
11473;SDS011;5793;52.238;13.438;2024-02-26T11:00:49;10.07;;;7.53;;
11473;SDS011;5793;52.238;13.438;2024-02-26T11:03:18;8.15;;;6.72;;
11473;SDS011;5793;52.238;13.438;2024-02-26T11:05:48;13.45;;;7.40;;
11473;SDS011;5793;52.238;13.438;2024-02-26T11:08:17;13.20;;;7.30;;
11473;SDS011;5793;52.238;13.438;2024-02-26T11:10:47;10.30;;;7.15;;
11473;SDS011;5793;52.238;13.438;2024-02-26T11:13:16;11.13;;;6.97;;
11473;SDS011;5793;52.238;13.438;2024-02-26T11:15:48;9.57;;;7.18;;
11473;SDS011;5793;52.238;13.438;2024-02-26T11:18:17;10.23;;;6.97;;
11473;SDS011;5793;52.238;13.438;2024-02-26T11:20:46;11.07;;;7.05;;
11473;SDS011;5793;52.238;13.438;2024-02-26T11:23:16;10.52;;;8.27;;
11473;SDS011;5793;52.238;13.438;2024-02-26T11:25:44;8.80;;;6.95;;
11473;SDS011;5793;52.238;13.438;2024-02-26T11:28:13;8.38;;;6.88;;
11473;SDS011;5793;52.238;13.438;2024-02-26T11:30:46;10.38;;;7.43;;
11473;SDS011;5793;52.238;13.438;2024-02-26T11:33:16;10.50;;;7.20;;
11473;SDS011;5793;52.238;13.438;2024-02-26T11:35:44;9.27;;;6.82;;
11473;SDS011;5793;52.238;13.438;2024-02-26T11:38:17;8.70;;;6.85;;
11473;SDS011;5793;52.238;13.438;2024-02-26T11:40:47;14.65;;;7.32;;
11473;SDS011;5793;52.238;13.438;2024-02-26T11:43:15;10.27;;;7.43;;
11473;SDS011;5793;52.238;13.438;2024-02-26T11:45:50;9.35;;;7.28;;
11473;SDS011;5793;52.238;13.438;2024-02-26T11:48:22;30.15;;;9.35;;
11473;SDS011;5793;52.238;13.438;2024-02-26T11:50:52;12.43;;;7.03;;
11473;SDS011;5793;52.238;13.438;2024-02-26T11:53:22;10.07;;;6.70;;
11473;SDS011;5793;52.238;13.438;2024-02-26T11:59:02;9.38;;;6.50;;
11473;SDS011;5793;52.238;13.438;2024-02-26T12:01:41;10.73;;;6.72;;
11473;SDS011;5793;52.238;13.438;2024-02-26T12:04:14;10.27;;;6.18;;
11473;SDS011;5793;52.238;13.438;2024-02-26T12:06:46;9.30;;;6.57;;
11473;SDS011;5793;52.238;13.438;2024-02-26T12:09:36;8.27;;;5.97;;
11473;SDS011;5793;52.238;13.438;2024-02-26T12:12:06;12.07;;;6.63;;
11473;SDS011;5793;52.238;13.438;2024-02-26T12:14:37;10.27;;;6.55;;
11473;SDS011;5793;52.238;13.438;2024-02-26T12:17:07;10.75;;;6.68;;
11473;SDS011;5793;52.238;13.438;2024-02-26T12:19:46;6.88;;;5.88;;
11473;SDS011;5793;52.238;13.438;2024-02-26T12:22:14;10.38;;;6.45;;
11473;SDS011;5793;52.238;13.438;2024-02-26T12:24:42;8.63;;;6.20;;
11473;SDS011;5793;52.238;13.438;2024-02-26T12:27:10;9.07;;;6.25;;
11473;SDS011;5793;52.238;13.438;2024-02-26T12:29:39;6.50;;;5.65;;
11473;SDS011;5793;52.238;13.438;2024-02-26T12:32:08;12.05;;;7.00;;
11473;SDS011;5793;52.238;13.438;2024-02-26T12:34:37;9.18;;;5.50;;
11473;SDS011;5793;52.238;13.438;2024-02-26T12:37:06;7.10;;;5.93;;
11473;SDS011;5793;52.238;13.438;2024-02-26T12:39:35;18.88;;;7.30;;
11473;SDS011;5793;52.238;13.438;2024-02-26T12:42:04;8.55;;;5.60;;
11473;SDS011;5793;52.238;13.438;2024-02-26T12:44:33;11.15;;;6.80;;
11473;SDS011;5793;52.238;13.438;2024-02-26T12:47:01;6.63;;;5.68;;
11473;SDS011;5793;52.238;13.438;2024-02-26T12:49:31;7.32;;;5.78;;
11473;SDS011;5793;52.238;13.438;2024-02-26T12:51:59;9.75;;;5.57;;
11473;SDS011;5793;52.238;13.438;2024-02-26T12:54:29;6.45;;;4.82;;
11473;SDS011;5793;52.238;13.438;2024-02-26T12:56:58;6.40;;;5.13;;
11473;SDS011;5793;52.238;13.438;2024-02-26T12:59:27;8.82;;;5.63;;
11473;SDS011;5793;52.238;13.438;2024-02-26T13:01:55;10.90;;;5.97;;
11473;SDS011;5793;52.238;13.438;2024-02-26T13:04:24;229.27;;;26.05;;
11473;SDS011;5793;52.238;13.438;2024-02-26T13:06:54;7.25;;;5.18;;
11473;SDS011;5793;52.238;13.438;2024-02-26T13:09:27;7.43;;;5.53;;
11473;SDS011;5793;52.238;13.438;2024-02-26T13:11:55;24.75;;;8.70;;
11473;SDS011;5793;52.238;13.438;2024-02-26T13:14:23;8.48;;;4.95;;
11473;SDS011;5793;52.238;13.438;2024-02-26T13:16:56;8.23;;;5.07;;
11473;SDS011;5793;52.238;13.438;2024-02-26T13:19:24;6.85;;;4.80;;
11473;SDS011;5793;52.238;13.438;2024-02-26T13:21:55;5.25;;;4.20;;
11473;SDS011;5793;52.238;13.438;2024-02-26T13:24:23;8.88;;;4.57;;
11473;SDS011;5793;52.238;13.438;2024-02-26T13:26:53;6.80;;;4.20;;
11473;SDS011;5793;52.238;13.438;2024-02-26T13:29:21;6.13;;;4.13;;
11473;SDS011;5793;52.238;13.438;2024-02-26T13:31:54;6.38;;;4.22;;
11473;SDS011;5793;52.238;13.438;2024-02-26T13:34:23;9.73;;;4.85;;
11473;SDS011;5793;52.238;13.438;2024-02-26T13:36:53;7.47;;;4.45;;
11473;SDS011;5793;52.238;13.438;2024-02-26T13:39:23;6.97;;;4.32;;
11473;SDS011;5793;52.238;13.438;2024-02-26T13:41:51;8.55;;;4.75;;
11473;SDS011;5793;52.238;13.438;2024-02-26T13:44:20;6.20;;;4.30;;
11473;SDS011;5793;52.238;13.438;2024-02-26T13:46:48;7.88;;;4.78;;
11473;SDS011;5793;52.238;13.438;2024-02-26T13:49:16;8.38;;;5.10;;
11473;SDS011;5793;52.238;13.438;2024-02-26T13:51:44;8.02;;;5.18;;
11473;SDS011;5793;52.238;13.438;2024-02-26T13:54:12;10.82;;;5.75;;
11473;SDS011;5793;52.238;13.438;2024-02-26T13:56:42;9.80;;;5.50;;
11473;SDS011;5793;52.238;13.438;2024-02-26T13:59:14;9.63;;;6.50;;
11473;SDS011;5793;52.238;13.438;2024-02-26T14:01:42;9.60;;;6.50;;
11473;SDS011;5793;52.238;13.438;2024-02-26T14:04:09;11.98;;;7.32;;
11473;SDS011;5793;52.238;13.438;2024-02-26T14:06:38;10.55;;;7.57;;
11473;SDS011;5793;52.238;13.438;2024-02-26T14:09:06;7.75;;;6.70;;
11473;SDS011;5793;52.238;13.438;2024-02-26T14:11:35;9.45;;;6.93;;
11473;SDS011;5793;52.238;13.438;2024-02-26T14:14:05;13.38;;;8.07;;
11473;SDS011;5793;52.238;13.438;2024-02-26T14:16:32;12.48;;;8.52;;
11473;SDS011;5793;52.238;13.438;2024-02-26T14:19:00;11.70;;;9.10;;
11473;SDS011;5793;52.238;13.438;2024-02-26T14:21:29;14.02;;;10.25;;
11473;SDS011;5793;52.238;13.438;2024-02-26T14:23:57;12.82;;;8.23;;
11473;SDS011;5793;52.238;13.438;2024-02-26T14:26:25;13.95;;;9.95;;
11473;SDS011;5793;52.238;13.438;2024-02-26T14:28:52;13.95;;;10.55;;
11473;SDS011;5793;52.238;13.438;2024-02-26T14:31:21;15.45;;;8.98;;
11473;SDS011;5793;52.238;13.438;2024-02-26T14:33:51;14.18;;;9.55;;
11473;SDS011;5793;52.238;13.438;2024-02-26T14:36:20;20.05;;;10.88;;
11473;SDS011;5793;52.238;13.438;2024-02-26T14:38:48;17.98;;;10.38;;
11473;SDS011;5793;52.238;13.438;2024-02-26T14:41:17;26.67;;;12.02;;